KVOK/VOK METAR and TAF weather

Enter ICAO airport designator
Station Type Date Time Source
KVOK METAR 2020/01/29 18:56 UTC NOAA

KVOK 291856Z 14003KT 10SM BKN015 OVC022 M04/M06 A3018 RMK AO2A BKN015 V OVC SLP239


Station Type Date Time Source
KVOK Decoded METAR 2020/01/29 18:56 UTC NOAA

Volk / Camp Douglas, WI, United States (KVOK) 43-56N 090-16W
Jan 29, 2020 - 01:56 PM EST / 2020.01.29 1856 UTC
Wind: from the SE (140 degrees) at 3 MPH (3 KT):0
Visibility: 10 mile(s):0
Sky conditions: overcast
Temperature: 24 F (-4 C)
Dew Point: 21 F (-6 C)
Relative Humidity: 85%
Pressure (altimeter): 30.18 in. Hg (1022 hPa)
ob: KVOK 291856Z 14003KT 10SM BKN015 OVC022 M04/M06 A3018 RMK AO2A BKN015 V OVC SLP239
cycle: 19

Station Type Date Time Source
KVOK TAF 2020/01/29 17:09 UTC NOAA

TAF KVOK 291700Z 2917/3023 VRB06KT 9999 BKN013 OVC019 620137 QNH3022INS
BECMG 3020/3021 VRB06KT 9999 BKN009 620099 QNH3013INS
BECMG 3021/3022 VRB06KT 9999 BKN010 620108 QNH3014INS TXM03/2920Z TNM09/3013Z LAST NO
AMDS AFT 2922 NEXT 3009

Example: see airport list